createdAt,value
2023-02-23T00:00:45.718Z,8.91
2023-02-23T00:03:31.724Z,8.90
2023-02-23T00:06:18.853Z,8.86
2023-02-23T00:09:24.444Z,8.84
2023-02-23T00:12:10.615Z,8.80
2023-02-23T00:14:56.405Z,8.77
2023-02-23T00:17:42.366Z,8.80
2023-02-23T00:20:28.219Z,8.77
2023-02-23T00:23:15.161Z,8.74
2023-02-23T00:26:05.213Z,8.73
2023-02-23T00:28:53.685Z,8.70
2023-02-23T00:31:40.808Z,8.68
2023-02-23T00:34:26.611Z,8.66
2023-02-23T00:37:12.566Z,8.62
2023-02-23T00:39:58.445Z,8.60
2023-02-23T00:42:47.911Z,8.57
2023-02-23T00:45:34.039Z,8.49
2023-02-23T00:48:19.822Z,8.51
2023-02-23T00:51:06.000Z,8.46
2023-02-23T00:53:55.160Z,8.35
2023-02-23T00:56:41.803Z,8.32
2023-02-23T00:59:29.679Z,8.39
2023-02-23T01:02:16.024Z,8.35
2023-02-23T01:05:02.163Z,8.33
2023-02-23T01:07:49.152Z,8.27
2023-02-23T01:10:42.921Z,8.13
2023-02-23T01:13:30.754Z,8.14
2023-02-23T01:16:18.318Z,8.16
2023-02-23T01:19:05.666Z,8.14
2023-02-23T01:21:51.896Z,8.09
2023-02-23T01:24:38.775Z,8.04
2023-02-23T01:27:25.869Z,8.01
2023-02-23T01:30:14.929Z,7.93
2023-02-23T01:33:02.964Z,7.91
2023-02-23T01:36:00.143Z,7.67
2023-02-23T01:38:45.773Z,7.82
2023-02-23T01:41:33.185Z,7.75
2023-02-23T01:44:19.082Z,7.80
2023-02-23T01:47:05.039Z,7.70
2023-02-23T01:49:51.083Z,7.74
2023-02-23T01:52:37.727Z,7.64
2023-02-23T01:55:24.705Z,7.63
2023-02-23T01:58:15.597Z,7.57
2023-02-23T02:01:02.998Z,7.54
2023-02-23T02:03:53.941Z,7.42
2023-02-23T02:06:40.226Z,7.48
2023-02-23T02:09:28.552Z,7.44
2023-02-23T02:12:15.073Z,7.42
2023-02-23T02:15:05.038Z,7.44
2023-02-23T02:17:59.101Z,7.40
2023-02-23T02:20:58.621Z,7.27
2023-02-23T02:24:15.298Z,7.29
2023-02-23T02:27:21.517Z,7.20
2023-02-23T02:30:43.691Z,7.30
2023-02-23T02:33:34.637Z,7.33
2023-02-23T02:36:44.694Z,7.28
2023-02-23T02:39:54.112Z,7.24
2023-02-23T02:42:51.315Z,7.21
2023-02-23T02:45:50.362Z,7.17
2023-02-23T02:48:50.406Z,7.18
2023-02-23T02:51:45.191Z,7.14
2023-02-23T02:55:00.593Z,7.17
2023-02-23T02:57:47.107Z,7.16
2023-02-23T03:01:00.821Z,7.11
2023-02-23T03:04:05.995Z,7.09
2023-02-23T03:07:24.987Z,7.01
2023-02-23T03:10:52.630Z,7.00
2023-02-23T03:14:25.868Z,6.95
2023-02-23T03:17:50.748Z,6.88
2023-02-23T03:21:24.060Z,6.88
2023-02-23T03:24:38.996Z,6.85
2023-02-23T03:28:08.396Z,6.84
2023-02-23T03:31:35.349Z,6.80
2023-02-23T03:34:47.788Z,6.77
2023-02-23T03:38:07.049Z,6.76
2023-02-23T03:41:13.076Z,6.79
2023-02-23T03:44:22.874Z,6.79
2023-02-23T03:47:29.574Z,6.69
2023-02-23T03:50:45.967Z,6.73
2023-02-23T03:54:40.221Z,6.69
2023-02-23T03:57:46.901Z,6.72
2023-02-23T04:00:54.887Z,6.68
2023-02-23T04:04:01.140Z,6.64
2023-02-23T04:07:06.170Z,6.61
2023-02-23T04:10:10.765Z,6.54
2023-02-23T04:13:17.425Z,6.46
2023-02-23T04:16:06.009Z,6.57
2023-02-23T04:18:51.861Z,6.54
2023-02-23T04:21:38.158Z,6.53
2023-02-23T04:24:23.855Z,6.53
2023-02-23T04:27:09.718Z,6.52
2023-02-23T04:29:55.537Z,6.40
2023-02-23T04:32:41.322Z,6.48
2023-02-23T04:35:29.952Z,6.44
2023-02-23T04:38:16.168Z,6.44
2023-02-23T04:41:02.112Z,6.43
2023-02-23T04:43:48.006Z,6.45
2023-02-23T04:46:33.744Z,6.44
2023-02-23T04:49:19.571Z,6.31
2023-02-23T04:52:05.707Z,6.37
2023-02-23T04:54:51.735Z,6.37
2023-02-23T04:57:37.669Z,6.33
2023-02-23T05:00:23.732Z,6.34
2023-02-23T05:03:10.837Z,6.34
2023-02-23T05:05:56.919Z,6.30
2023-02-23T05:08:43.080Z,6.26
2023-02-23T05:11:29.988Z,6.27
2023-02-23T05:14:15.992Z,6.31
2023-02-23T05:17:02.957Z,6.25
2023-02-23T05:19:48.922Z,6.19
2023-02-23T05:22:34.858Z,6.16
2023-02-23T05:25:20.807Z,6.13
2023-02-23T05:28:06.682Z,6.22
2023-02-23T05:30:52.699Z,6.24
2023-02-23T05:33:45.857Z,6.21
2023-02-23T05:36:31.856Z,6.20
2023-02-23T05:39:17.604Z,6.20
2023-02-23T05:42:03.640Z,6.19
2023-02-23T05:44:49.358Z,6.17
2023-02-23T05:47:38.836Z,6.20
2023-02-23T05:50:25.985Z,6.10
2023-02-23T05:53:11.954Z,6.18
2023-02-23T05:55:58.157Z,6.18
2023-02-23T05:58:44.572Z,6.10
2023-02-23T06:01:31.012Z,6.18
2023-02-23T06:04:17.456Z,6.11
2023-02-23T06:07:03.921Z,6.19
2023-02-23T06:09:50.735Z,6.21
2023-02-23T06:12:36.603Z,6.18
2023-02-23T06:15:22.576Z,6.21
2023-02-23T06:18:09.151Z,6.22
2023-02-23T06:20:55.650Z,6.23
2023-02-23T06:23:41.803Z,6.24
2023-02-23T06:26:27.785Z,6.30
2023-02-23T06:29:14.754Z,6.30
2023-02-23T06:32:01.077Z,6.28
2023-02-23T06:34:47.378Z,6.42
2023-02-23T06:37:34.277Z,6.45
2023-02-23T06:40:20.976Z,6.52
2023-02-23T06:43:06.782Z,6.54
2023-02-23T06:45:52.657Z,6.61
2023-02-23T06:48:38.482Z,6.71
2023-02-23T06:51:24.464Z,6.69
2023-02-23T06:54:10.381Z,6.72
2023-02-23T06:56:56.775Z,6.91
2023-02-23T06:59:42.782Z,7.00
2023-02-23T07:02:28.587Z,7.04
2023-02-23T07:05:14.570Z,7.14
2023-02-23T07:08:00.503Z,7.23
2023-02-23T07:10:46.645Z,7.34
2023-02-23T07:13:32.867Z,7.44
2023-02-23T07:16:18.734Z,7.56
2023-02-23T07:19:04.776Z,7.50
2023-02-23T07:21:50.903Z,7.78
2023-02-23T07:24:36.663Z,7.84
2023-02-23T07:27:23.040Z,7.91
2023-02-23T07:30:09.875Z,8.05
2023-02-23T07:32:55.771Z,8.14
2023-02-23T07:35:43.132Z,8.30
2023-02-23T07:38:29.160Z,8.39
2023-02-23T07:41:15.115Z,8.49
2023-02-23T07:44:01.080Z,8.54
2023-02-23T07:46:46.969Z,8.56
2023-02-23T07:49:33.171Z,8.69
2023-02-23T07:52:19.265Z,8.78
2023-02-23T07:55:05.871Z,8.86
2023-02-23T07:57:51.899Z,8.96
2023-02-23T08:00:40.094Z,9.04
2023-02-23T08:03:26.486Z,9.10
2023-02-23T08:06:12.514Z,9.21
2023-02-23T08:09:01.974Z,9.27
2023-02-23T08:11:47.882Z,9.29
2023-02-23T08:14:33.716Z,9.27
2023-02-23T08:17:19.912Z,9.45
2023-02-23T08:20:07.096Z,9.51
2023-02-23T08:22:57.149Z,9.61
2023-02-23T08:25:42.824Z,9.61
2023-02-23T08:28:29.226Z,9.62
2023-02-23T08:31:16.422Z,9.76
2023-02-23T08:34:02.770Z,9.78
2023-02-23T08:36:49.521Z,9.78
2023-02-23T08:39:35.360Z,9.92
2023-02-23T08:42:21.513Z,10.01
2023-02-23T08:45:08.712Z,9.97
2023-02-23T08:47:55.804Z,10.13
2023-02-23T08:50:41.697Z,10.17
2023-02-23T08:53:29.781Z,10.26
2023-02-23T08:56:15.661Z,10.30
2023-02-23T08:59:01.614Z,10.29
2023-02-23T09:01:47.555Z,10.44
2023-02-23T09:04:35.232Z,10.48
2023-02-23T09:07:23.248Z,10.51
2023-02-23T09:10:11.119Z,10.54
2023-02-23T09:12:56.827Z,10.64
2023-02-23T09:15:43.616Z,10.77
2023-02-23T09:18:30.753Z,10.76
2023-02-23T09:21:21.103Z,10.89
2023-02-23T09:24:07.400Z,11.05
2023-02-23T09:26:53.826Z,11.17
2023-02-23T09:29:43.910Z,11.23
2023-02-23T09:32:30.184Z,11.32
2023-02-23T09:35:17.989Z,11.40
2023-02-23T09:38:05.707Z,11.39
2023-02-23T09:40:55.412Z,11.52
2023-02-23T09:43:45.346Z,11.53
2023-02-23T10:21:21.111Z,12.67
2023-02-23T10:24:30.284Z,12.77
2023-02-23T10:27:18.887Z,12.92
2023-02-23T10:30:14.800Z,12.90
2023-02-23T10:33:03.561Z,13.19
2023-02-23T10:35:54.024Z,13.28
2023-02-23T10:38:46.987Z,13.37
2023-02-23T10:41:34.547Z,13.47
2023-02-23T10:44:24.356Z,13.52
2023-02-23T10:47:31.556Z,13.48
2023-02-23T10:50:18.156Z,13.73
2023-02-23T10:53:17.539Z,13.70
2023-02-23T10:56:13.905Z,13.83
2023-02-23T10:59:00.242Z,14.00
2023-02-23T11:02:01.007Z,14.08
2023-02-23T11:04:53.956Z,14.16
2023-02-23T11:07:40.214Z,14.27
2023-02-23T11:10:28.155Z,14.42
2023-02-23T11:13:26.434Z,14.50
2023-02-23T11:16:17.731Z,14.71
2023-02-23T11:19:05.418Z,14.87
2023-02-23T11:21:52.599Z,14.76
2023-02-23T11:24:41.280Z,15.07
2023-02-23T11:27:27.773Z,15.17
2023-02-23T11:30:14.006Z,15.28
2023-02-23T11:33:10.692Z,15.29
2023-02-23T11:36:01.196Z,15.37
2023-02-23T11:38:47.920Z,15.34
2023-02-23T11:41:37.181Z,15.54
2023-02-23T11:44:23.930Z,15.58
2023-02-23T11:47:27.933Z,15.61
2023-02-23T11:50:39.914Z,15.67
2023-02-23T11:53:32.781Z,15.84
2023-02-23T11:56:24.009Z,15.97
2023-02-23T11:59:18.383Z,16.04
2023-02-23T12:02:15.791Z,16.13
2023-02-23T12:05:17.158Z,16.23
2023-02-23T12:08:27.673Z,16.35
2023-02-23T12:11:20.692Z,16.33
2023-02-23T12:14:26.576Z,16.37
2023-02-23T12:17:25.847Z,16.52
2023-02-23T12:20:16.390Z,16.58
2023-02-23T12:23:13.944Z,16.41
2023-02-23T12:26:13.913Z,16.58
2023-02-23T12:29:04.719Z,16.69
2023-02-23T12:32:05.787Z,16.64
2023-02-23T12:34:59.361Z,16.60
2023-02-23T12:37:50.247Z,16.72
2023-02-23T12:40:38.619Z,16.85
2023-02-23T12:43:36.333Z,16.86
2023-02-23T12:46:25.699Z,16.96
2023-02-23T12:49:19.630Z,17.01
2023-02-23T12:52:17.546Z,17.02
2023-02-23T12:55:04.168Z,17.23
2023-02-23T12:58:06.919Z,17.25
2023-02-23T13:01:04.475Z,17.29
2023-02-23T13:04:02.797Z,17.40
2023-02-23T13:07:00.651Z,17.40
2023-02-23T13:10:24.223Z,17.45
2023-02-23T13:13:11.554Z,17.37
2023-02-23T13:16:17.603Z,17.49
2023-02-23T13:19:09.338Z,17.55
2023-02-23T13:22:06.828Z,17.56
2023-02-23T13:24:54.456Z,17.69
2023-02-23T13:27:47.008Z,17.72
2023-02-23T13:30:33.656Z,17.75
2023-02-23T13:33:43.322Z,17.77
2023-02-23T13:36:32.499Z,17.84
2023-02-23T13:40:12.820Z,17.94
2023-02-23T13:43:38.216Z,17.99
2023-02-23T13:46:46.064Z,18.06
2023-02-23T13:49:39.005Z,18.24
2023-02-23T13:52:45.272Z,18.07
2023-02-23T13:55:48.204Z,18.24
2023-02-23T13:58:35.816Z,18.34
2023-02-23T14:01:23.616Z,18.52
2023-02-23T14:04:15.771Z,18.61
2023-02-23T14:07:16.710Z,18.83
2023-02-23T14:10:30.135Z,18.97
2023-02-23T14:13:16.550Z,19.14
2023-02-23T14:16:20.158Z,19.13
2023-02-23T14:19:34.537Z,19.14
2023-02-23T14:22:22.185Z,19.25
2023-02-23T14:25:33.155Z,19.23
2023-02-23T14:28:27.717Z,19.27
2023-02-23T14:31:14.155Z,19.25
2023-02-23T14:34:02.038Z,19.19
2023-02-23T14:36:49.983Z,19.13
2023-02-23T14:39:36.379Z,19.06
2023-02-23T14:42:27.864Z,18.91
2023-02-23T14:45:20.942Z,18.92
2023-02-23T14:48:13.675Z,18.79
2023-02-23T14:51:17.242Z,18.73
2023-02-23T14:54:11.581Z,18.67
2023-02-23T14:57:00.167Z,18.63
2023-02-23T14:59:56.632Z,18.53
2023-02-23T15:03:00.652Z,18.29
2023-02-23T15:05:57.869Z,18.29
2023-02-23T15:08:46.525Z,18.29
2023-02-23T15:11:32.915Z,18.16
2023-02-23T15:14:27.504Z,18.10
2023-02-23T15:17:17.685Z,18.02
2023-02-23T15:20:15.980Z,17.96
2023-02-23T15:23:05.214Z,17.87
2023-02-23T15:25:52.864Z,17.76
2023-02-23T15:28:40.320Z,17.78
2023-02-23T15:31:30.828Z,17.69
2023-02-23T15:34:21.494Z,17.53
2023-02-23T15:37:23.772Z,17.48
2023-02-23T15:40:17.791Z,17.42
2023-02-23T15:43:03.924Z,17.36
2023-02-23T15:45:52.406Z,17.31
2023-02-23T15:48:46.680Z,17.11
2023-02-23T15:51:32.608Z,17.13
2023-02-23T15:54:20.510Z,17.02
2023-02-23T15:57:08.429Z,16.94
2023-02-23T15:59:58.087Z,16.82
2023-02-23T16:02:45.035Z,16.61
2023-02-23T16:05:46.586Z,16.65
2023-02-23T16:08:34.324Z,16.51
2023-02-23T16:11:22.278Z,16.48
2023-02-23T16:14:15.532Z,16.38
2023-02-23T16:17:10.841Z,16.36
2023-02-23T16:20:18.992Z,16.21
2023-02-23T16:23:06.060Z,16.14
2023-02-23T16:25:55.237Z,16.17
2023-02-23T16:28:43.720Z,16.11
2023-02-23T16:31:49.973Z,15.99
2023-02-23T16:34:48.991Z,15.96
2023-02-23T16:37:50.035Z,15.84
2023-02-23T16:40:35.807Z,15.83
2023-02-23T16:43:21.787Z,15.78
2023-02-23T16:46:08.383Z,15.72
2023-02-23T16:48:54.452Z,15.65
2023-02-23T16:51:40.655Z,15.59
2023-02-23T16:54:27.083Z,15.49
2023-02-23T16:57:24.969Z,15.37
2023-02-23T17:00:14.866Z,15.33
2023-02-23T17:03:01.468Z,15.20
2023-02-23T17:05:48.098Z,15.14
2023-02-23T17:08:35.724Z,15.14
2023-02-23T17:11:23.014Z,15.00
2023-02-23T17:14:11.269Z,15.01
2023-02-23T17:16:57.454Z,14.84
2023-02-23T17:19:45.546Z,14.83
2023-02-23T17:22:33.450Z,14.76
2023-02-23T17:25:19.736Z,14.73
2023-02-23T17:28:05.846Z,14.68
2023-02-23T17:30:51.995Z,14.58
2023-02-23T17:33:39.083Z,14.52
2023-02-23T17:36:27.594Z,14.46
2023-02-23T17:39:16.830Z,14.38
2023-02-23T17:42:02.740Z,14.32
2023-02-23T17:44:48.675Z,14.25
2023-02-23T17:47:36.051Z,14.19
2023-02-23T17:50:22.265Z,14.16
2023-02-23T17:53:08.103Z,14.11
2023-02-23T17:55:57.974Z,14.03
2023-02-23T17:58:45.737Z,14.01
2023-02-23T18:01:31.612Z,13.96
2023-02-23T18:04:17.552Z,13.83
2023-02-23T18:07:03.610Z,13.79
2023-02-23T18:09:50.150Z,13.75
2023-02-23T18:12:36.504Z,13.70
2023-02-23T18:15:22.220Z,13.60
2023-02-23T18:18:08.189Z,13.56
2023-02-23T18:20:56.389Z,13.46
2023-02-23T18:23:42.818Z,13.16
2023-02-23T18:26:28.996Z,13.39
2023-02-23T18:29:15.103Z,13.32
2023-02-23T18:32:03.024Z,13.21
2023-02-23T18:34:49.467Z,13.26
2023-02-23T18:37:35.792Z,13.14
2023-02-23T18:40:23.894Z,13.10
2023-02-23T18:43:11.160Z,12.96
2023-02-23T18:45:57.747Z,12.99
2023-02-23T18:48:44.486Z,12.90
2023-02-23T18:51:30.194Z,12.86
2023-02-23T18:54:19.071Z,12.86
2023-02-23T18:57:06.225Z,12.73
2023-02-23T18:59:52.673Z,12.76
2023-02-23T19:02:38.517Z,12.75
2023-02-23T19:05:24.861Z,12.69
2023-02-23T19:08:13.564Z,12.65
2023-02-23T19:10:59.902Z,12.57
2023-02-23T19:13:46.141Z,12.55
2023-02-23T19:16:33.001Z,12.56
2023-02-23T19:19:18.781Z,12.54
2023-02-23T19:22:04.674Z,12.50
2023-02-23T19:24:50.725Z,12.47
2023-02-23T19:27:36.735Z,12.43
2023-02-23T19:30:22.646Z,12.38
2023-02-23T19:33:08.954Z,12.39
2023-02-23T19:35:54.829Z,12.33
2023-02-23T19:38:42.545Z,12.34
2023-02-23T19:41:28.592Z,12.28
2023-02-23T19:44:14.668Z,12.25
2023-02-23T19:47:00.741Z,12.24
2023-02-23T19:49:46.633Z,12.14
2023-02-23T19:52:32.418Z,12.19
2023-02-23T19:55:20.335Z,12.05
2023-02-23T19:58:06.454Z,12.02
2023-02-23T20:00:53.255Z,11.97
2023-02-23T20:03:46.273Z,11.96
2023-02-23T20:06:36.274Z,11.89
2023-02-23T20:09:22.456Z,11.88
2023-02-23T20:12:09.218Z,11.88
2023-02-23T20:14:55.558Z,11.80
2023-02-23T20:17:41.683Z,11.80
2023-02-23T20:20:29.365Z,11.80
2023-02-23T20:23:15.697Z,11.80
2023-02-23T20:26:10.936Z,11.73
2023-02-23T20:28:57.904Z,11.70
2023-02-23T20:31:52.231Z,11.67
2023-02-23T20:34:39.425Z,11.62
2023-02-23T20:37:25.780Z,11.57
2023-02-23T20:40:18.838Z,11.55
2023-02-23T20:43:05.481Z,11.52
2023-02-23T20:45:51.588Z,11.49
2023-02-23T20:48:37.795Z,11.41
2023-02-23T20:51:23.824Z,11.36
2023-02-23T20:54:11.227Z,11.35
2023-02-23T20:57:07.490Z,11.28
2023-02-23T20:59:53.302Z,11.23
2023-02-23T21:02:40.993Z,11.09
2023-02-23T21:05:29.232Z,11.10
2023-02-23T21:08:15.647Z,11.12
2023-02-23T21:11:05.148Z,11.05
2023-02-23T21:13:52.130Z,11.02
2023-02-23T21:16:41.756Z,10.93
2023-02-23T21:19:27.820Z,10.92
2023-02-23T21:22:16.454Z,10.89
2023-02-23T21:25:02.428Z,10.76
2023-02-23T21:27:49.742Z,10.75
2023-02-23T21:30:35.971Z,10.66
2023-02-23T21:33:22.059Z,10.60
2023-02-23T21:36:18.497Z,10.61
2023-02-23T21:39:10.544Z,10.56
2023-02-23T21:41:58.542Z,10.57
2023-02-23T21:44:45.810Z,10.54
2023-02-23T21:47:40.724Z,10.53
2023-02-23T21:50:26.839Z,10.50
2023-02-23T21:53:13.256Z,10.47
2023-02-23T21:55:59.650Z,10.46
2023-02-23T21:58:50.757Z,10.43
2023-02-23T22:01:38.975Z,10.38
2023-02-23T22:04:24.858Z,10.30
2023-02-23T22:07:10.655Z,10.25
2023-02-23T22:09:56.523Z,10.26
2023-02-23T22:12:42.391Z,10.23
2023-02-23T22:15:28.340Z,10.22
2023-02-23T22:18:14.368Z,10.16
2023-02-23T22:21:01.680Z,10.16
2023-02-23T22:23:48.022Z,10.05
2023-02-23T22:26:36.096Z,10.14
2023-02-23T22:29:23.698Z,10.11
2023-02-23T22:32:10.570Z,10.10
2023-02-23T22:34:56.877Z,10.08
2023-02-23T22:37:42.692Z,10.04
2023-02-23T22:40:28.847Z,9.99
2023-02-23T22:43:16.282Z,9.97
2023-02-23T22:46:02.397Z,9.89
2023-02-23T22:48:48.716Z,9.82
2023-02-23T22:51:34.847Z,9.76
2023-02-23T22:54:24.024Z,9.82
2023-02-23T22:57:10.125Z,9.77
2023-02-23T23:00:00.105Z,9.74
2023-02-23T23:02:46.111Z,9.75
2023-02-23T23:05:32.861Z,9.62
2023-02-23T23:08:18.815Z,9.69
2023-02-23T23:11:09.981Z,9.67
2023-02-23T23:14:02.152Z,9.62
2023-02-23T23:16:49.492Z,9.60
2023-02-23T23:19:39.140Z,9.59
2023-02-23T23:22:25.382Z,9.48
2023-02-23T23:25:14.887Z,9.57
2023-02-23T23:28:00.680Z,9.53
2023-02-23T23:30:47.355Z,9.51
2023-02-23T23:33:34.577Z,9.51
2023-02-23T23:36:23.683Z,9.44
2023-02-23T23:39:12.092Z,9.40
2023-02-23T23:41:58.050Z,9.36
2023-02-23T23:44:45.276Z,9.36
2023-02-23T23:47:31.093Z,9.31
2023-02-23T23:50:17.503Z,9.27
2023-02-23T23:53:04.592Z,9.28
2023-02-23T23:55:50.468Z,9.23
2023-02-23T23:58:37.303Z,9.22
